Time;durP1;ratioP1;P1;durP2;ratioP2;P2;SDS_P1;SDS_P2;PMS_P1;PMS_P2;Temp;Humidity;BMP_temperature;BMP_pressure;BME280_temperature;BME280_humidity;BME280_pressure;Samples;Min_cycle;Max_cycle;Signal;HPM_P1;HPM_P2
2022/01/15 00:02:17;;;;;;;7.57;4.50;;;7.40;99.90;;;;;;5050927;28;20048;-67
2022/01/15 00:04:43;;;;;;;6.43;4.47;;;7.40;99.90;;;;;;5068393;28;20070;-67
2022/01/15 00:07:08;;;;;;;6.35;4.40;;;7.40;99.90;;;;;;5068053;28;20049;-67
2022/01/15 00:09:34;;;;;;;6.85;4.05;;;7.40;99.90;;;;;;5066446;28;20444;-67
2022/01/15 00:12:00;;;;;;;7.05;4.20;;;7.40;99.90;;;;;;5067398;28;20080;-67
2022/01/15 00:14:31;;;;;;;5.68;3.88;;;7.90;99.90;;;;;;5049345;28;20088;-67
2022/01/15 00:17:04;;;;;;;5.45;3.88;;;7.30;99.90;;;;;;5066995;28;20400;-67
2022/01/15 00:19:41;;;;;;;5.97;4.18;;;7.30;99.90;;;;;;5069949;28;20109;-67
2022/01/15 00:22:11;;;;;;;6.15;4.03;;;7.60;99.90;;;;;;5066968;28;20158;-67
2022/01/15 00:24:37;;;;;;;6.55;3.92;;;7.20;99.90;;;;;;5067793;28;20393;-67
2022/01/15 00:27:04;;;;;;;6.55;4.00;;;7.20;99.90;;;;;;5068874;28;20396;-67
2022/01/15 00:29:31;;;;;;;5.45;3.58;;;7.20;99.90;;;;;;5069699;28;20087;-67
2022/01/15 00:31:58;;;;;;;5.50;3.53;;;8.00;99.90;;;;;;5066964;28;20156;-67
2022/01/15 00:34:23;;;;;;;5.30;3.67;;;8.00;99.90;;;;;;5068609;28;20455;-67
2022/01/15 00:36:49;;;;;;;5.18;3.55;;;7.30;99.90;;;;;;5071913;28;20131;-67
2022/01/15 00:39:14;;;;;;;4.80;3.30;;;7.30;99.90;;;;;;5065301;28;20353;-67
2022/01/15 00:41:40;;;;;;;4.95;3.30;;;7.30;99.90;;;;;;5066588;28;20476;-67
2022/01/15 00:44:06;;;;;;;4.30;3.13;;;7.30;99.90;;;;;;5068683;28;20084;-67
2022/01/15 00:46:31;;;;;;;4.43;3.08;;;7.30;99.90;;;;;;5072728;28;20059;-67
2022/01/15 00:48:57;;;;;;;4.70;3.20;;;7.20;99.90;;;;;;5072085;28;20051;-67
2022/01/15 00:51:24;;;;;;;3.83;2.42;;;7.20;99.90;;;;;;5046277;28;20053;-67
2022/01/15 00:53:49;;;;;;;4.47;2.80;;;7.20;99.90;;;;;;5064211;28;20052;-67
2022/01/15 00:56:15;;;;;;;5.63;3.30;;;7.20;99.90;;;;;;5062308;28;20044;-67
2022/01/15 00:58:41;;;;;;;4.70;2.83;;;7.20;99.90;;;;;;5055577;28;20051;-67
2022/01/15 01:01:06;;;;;;;4.63;2.80;;;7.20;99.90;;;;;;5071813;28;20048;-66
2022/01/15 01:03:32;;;;;;;3.90;2.50;;;7.20;99.90;;;;;;5069747;28;20071;-67
2022/01/15 01:05:58;;;;;;;4.82;2.70;;;7.20;99.90;;;;;;5053362;28;20056;-67
2022/01/15 01:08:23;;;;;;;4.03;2.45;;;7.20;99.90;;;;;;5071712;28;20481;-67
2022/01/15 01:10:57;;;;;;;4.60;2.70;;;7.20;99.90;;;;;;5051787;28;20144;-67
2022/01/15 01:22:20;;;;;;;4.47;2.85;;;7.10;99.90;;;;;;5070392;28;20060;-67
2022/01/15 01:24:25;;;;;;;3.63;2.30;;;7.10;99.90;;;;;;5062522;28;20080;-67
2022/01/15 01:29:32;;;;;;;3.55;2.00;;;7.10;99.90;;;;;;5070446;28;20048;-67
2022/01/15 01:32:10;;;;;;;3.17;1.70;;;7.10;99.90;;;;;;5068264;28;20056;-67
2022/01/15 01:34:39;;;;;;;3.28;1.67;;;7.10;99.90;;;;;;5072696;28;20056;-67
2022/01/15 01:39:43;;;;;;;2.42;1.35;;;7.00;99.90;;;;;;5052826;28;20463;-67
2022/01/15 01:42:26;;;;;;;2.95;1.40;;;7.10;99.90;;;;;;5051807;28;20155;-67
2022/01/15 01:45:08;;;;;;;4.00;1.70;;;7.10;99.90;;;;;;5070657;28;20056;-67
2022/01/15 01:50:04;;;;;;;3.60;1.98;;;7.00;99.90;;;;;;5070722;28;20094;-67
2022/01/15 01:52:30;;;;;;;3.40;2.10;;;7.00;99.90;;;;;;5052046;28;20049;-67
2022/01/15 01:54:55;;;;;;;3.88;2.20;;;7.00;99.90;;;;;;5049651;28;20052;-66
2022/01/15 01:57:21;;;;;;;3.25;2.00;;;7.00;99.90;;;;;;5070072;28;20107;-67
2022/01/15 01:59:46;;;;;;;3.15;2.00;;;7.00;99.90;;;;;;5051922;28;20048;-67
2022/01/15 02:02:12;;;;;;;3.78;2.10;;;7.00;99.90;;;;;;5069251;28;20059;-66
2022/01/15 02:04:37;;;;;;;3.38;1.95;;;7.00;99.90;;;;;;5070511;28;20397;-66
2022/01/15 02:07:03;;;;;;;2.88;1.70;;;7.00;99.90;;;;;;5069871;28;20053;-66
2022/01/15 02:09:29;;;;;;;3.25;1.70;;;7.00;99.90;;;;;;5071165;28;20053;-66
2022/01/15 02:11:55;;;;;;;2.70;1.67;;;7.00;99.90;;;;;;5069157;28;20053;-66
2022/01/15 02:14:28;;;;;;;3.17;1.50;;;7.00;99.90;;;;;;5069733;28;20056;-66
2022/01/15 02:16:55;;;;;;;2.38;1.55;;;8.30;99.90;;;;;;5068309;28;20048;-66
2022/01/15 02:19:21;;;;;;;2.28;1.50;;;7.00;99.90;;;;;;5069994;28;20052;-66
2022/01/15 02:24:13;;;;;;;2.03;1.55;;;7.00;99.90;;;;;;5059720;28;20072;-66
2022/01/15 02:26:39;;;;;;;2.97;1.92;;;7.00;99.90;;;;;;5068669;28;20054;-66
2022/01/15 02:29:07;;;;;;;3.60;1.80;;;7.00;99.90;;;;;;5068835;28;20067;-66
2022/01/15 02:31:34;;;;;;;3.03;1.90;;;7.00;99.90;;;;;;5067741;28;20060;-66
2022/01/15 02:34:02;;;;;;;2.85;1.90;;;7.00;99.90;;;;;;5059845;28;20082;-66
2022/01/15 02:36:33;;;;;;;3.40;1.77;;;7.00;99.90;;;;;;5068446;28;20084;-66
2022/01/15 02:39:00;;;;;;;2.80;1.60;;;7.00;99.90;;;;;;5071108;28;20080;-66
2022/01/15 02:41:27;;;;;;;2.90;2.00;;;7.00;99.90;;;;;;5068578;28;20044;-67
2022/01/15 02:43:53;;;;;;;3.00;1.80;;;7.00;99.90;;;;;;5068855;28;20106;-66
2022/01/15 02:46:22;;;;;;;3.00;2.03;;;7.00;99.90;;;;;;5069070;28;20119;-66
2022/01/15 02:48:51;;;;;;;3.72;2.00;;;7.00;99.90;;;;;;5069589;28;20099;-65
2022/01/15 02:51:18;;;;;;;3.88;2.25;;;7.00;99.90;;;;;;5067979;28;20123;-66
2022/01/15 02:53:45;;;;;;;4.35;2.47;;;7.00;99.90;;;;;;5070883;28;20052;-66
2022/01/15 02:56:11;;;;;;;4.60;2.85;;;7.00;99.90;;;;;;5068173;28;20139;-67
2022/01/15 02:58:36;;;;;;;5.45;3.13;;;8.10;99.90;;;;;;5051005;28;20143;-66
2022/01/15 03:01:02;;;;;;;4.72;2.95;;;7.00;99.90;;;;;;5070310;28;20074;-66
2022/01/15 03:03:28;;;;;;;4.63;2.80;;;7.00;99.90;;;;;;5068080;28;20452;-66
2022/01/15 03:05:54;;;;;;;5.80;3.08;;;7.00;99.90;;;;;;5050992;28;20131;-66
2022/01/15 03:08:19;;;;;;;4.53;2.75;;;7.30;99.90;;;;;;5051030;28;20075;-66
2022/01/15 03:10:46;;;;;;;5.13;3.10;;;7.00;99.90;;;;;;5069496;28;20063;-66
2022/01/15 03:13:13;;;;;;;4.80;2.85;;;7.00;99.90;;;;;;5070943;28;20048;-66
2022/01/15 03:15:40;;;;;;;5.50;2.70;;;7.00;99.90;;;;;;5062083;28;20102;-66
2022/01/15 03:18:06;;;;;;;5.47;3.08;;;7.00;99.90;;;;;;5067461;28;20492;-66
2022/01/15 03:20:32;;;;;;;5.63;3.63;;;7.00;99.90;;;;;;5068990;28;20048;-66
2022/01/15 03:22:58;;;;;;;5.50;3.10;;;7.00;99.90;;;;;;5068353;28;20097;-66
2022/01/15 03:25:23;;;;;;;5.40;2.92;;;7.00;99.90;;;;;;5067400;28;20048;-66
2022/01/15 03:27:49;;;;;;;6.30;2.88;;;7.00;99.90;;;;;;5050553;28;20110;-66
2022/01/15 03:30:15;;;;;;;4.82;2.83;;;7.00;99.90;;;;;;5050505;28;20489;-66
2022/01/15 03:32:44;;;;;;;5.57;2.88;;;7.80;99.90;;;;;;5067710;28;20053;-66
2022/01/15 03:35:15;;;;;;;5.63;2.78;;;7.50;99.90;;;;;;5068721;28;20048;-66
2022/01/15 03:37:41;;;;;;;7.18;3.03;;;7.00;99.90;;;;;;5068870;28;20059;-66
2022/01/15 03:40:09;;;;;;;5.32;2.92;;;7.00;99.90;;;;;;5069251;28;20377;-66
2022/01/15 03:42:35;;;;;;;5.80;3.20;;;7.00;99.90;;;;;;5070609;28;20392;-66
2022/01/15 03:45:01;;;;;;;5.10;3.00;;;7.00;99.90;;;;;;5068926;28;20041;-67
2022/01/15 03:47:27;;;;;;;5.53;2.80;;;7.00;99.90;;;;;;5066553;28;20047;-66
2022/01/15 03:49:52;;;;;;;4.90;2.75;;;7.00;99.90;;;;;;5068885;28;20052;-66
2022/01/15 03:52:18;;;;;;;5.32;2.40;;;6.90;99.90;;;;;;5066928;28;20149;-67
2022/01/15 03:54:43;;;;;;;6.97;2.88;;;6.90;99.90;;;;;;5068265;28;20060;-66
2022/01/15 03:57:09;;;;;;;4.43;2.55;;;6.90;99.90;;;;;;5067683;28;20471;-66
2022/01/15 03:59:35;;;;;;;4.30;2.70;;;6.90;99.90;;;;;;5063329;28;20159;-66
2022/01/15 04:02:00;;;;;;;3.30;2.30;;;6.90;99.90;;;;;;5062804;28;20055;-66
2022/01/15 04:04:26;;;;;;;5.47;2.88;;;6.90;99.90;;;;;;5068053;28;20523;-66
2022/01/15 04:06:52;;;;;;;5.25;3.00;;;6.90;99.90;;;;;;5067135;28;20056;-66
2022/01/15 04:09:17;;;;;;;4.88;2.78;;;6.90;99.90;;;;;;5068570;28;20048;-66
2022/01/15 04:11:44;;;;;;;6.28;2.80;;;6.90;99.90;;;;;;5050056;28;20067;-66
2022/01/15 04:14:10;;;;;;;4.63;2.72;;;6.80;99.90;;;;;;5066269;28;20056;-66
2022/01/15 04:16:35;;;;;;;5.30;2.75;;;6.80;99.90;;;;;;5034242;28;20455;-67
2022/01/15 04:19:02;;;;;;;4.68;2.83;;;6.80;99.90;;;;;;5072366;28;20055;-66
2022/01/15 04:21:27;;;;;;;5.43;2.60;;;6.80;99.90;;;;;;5074325;28;20408;-66
2022/01/15 04:23:54;;;;;;;3.50;2.42;;;6.80;99.90;;;;;;5056750;28;20120;-66
2022/01/15 04:26:24;;;;;;;4.50;2.45;;;6.80;99.90;;;;;;5073946;28;20052;-67
2022/01/15 04:28:51;;;;;;;4.22;2.60;;;6.80;99.90;;;;;;5074061;28;20072;-66
2022/01/15 04:31:17;;;;;;;3.20;2.08;;;7.00;99.90;;;;;;5073921;28;20087;-67
2022/01/15 04:33:43;;;;;;;4.57;2.55;;;6.90;99.90;;;;;;5055811;28;20091;-66
2022/01/15 04:36:09;;;;;;;3.90;2.50;;;7.60;99.90;;;;;;5055692;28;20740;-66
2022/01/15 04:38:38;;;;;;;5.82;2.40;;;6.80;99.90;;;;;;5075210;28;20048;-66
2022/01/15 04:41:05;;;;;;;4.25;2.17;;;6.80;99.90;;;;;;5073870;28;20048;-66
2022/01/15 04:43:31;;;;;;;3.22;2.10;;;6.80;99.90;;;;;;5073705;28;20450;-66
2022/01/15 04:45:56;;;;;;;4.10;2.40;;;6.80;99.90;;;;;;5073161;28;20057;-66
2022/01/15 04:48:22;;;;;;;5.25;2.40;;;6.80;99.90;;;;;;5074150;28;20101;-66
2022/01/15 04:50:48;;;;;;;4.68;2.45;;;6.70;99.90;;;;;;5056424;28;20131;-66
2022/01/15 04:53:14;;;;;;;4.65;2.60;;;6.70;99.90;;;;;;5074333;28;20458;-66
2022/01/15 04:55:40;;;;;;;4.25;2.35;;;6.70;99.90;;;;;;5073298;28;20041;-66
2022/01/15 04:58:06;;;;;;;5.82;2.60;;;6.70;99.90;;;;;;5040147;28;20097;-66
2022/01/15 05:00:33;;;;;;;4.43;2.80;;;6.70;99.90;;;;;;5056743;28;20057;-66
2022/01/15 05:02:59;;;;;;;3.97;2.55;;;6.70;99.90;;;;;;5072862;28;20527;-66
2022/01/15 05:05:26;;;;;;;3.72;2.40;;;6.80;99.90;;;;;;5074559;28;20048;-66
2022/01/15 05:07:53;;;;;;;4.20;2.55;;;6.80;99.90;;;;;;5074670;28;20464;-66
2022/01/15 05:10:23;;;;;;;4.80;2.65;;;6.80;99.90;;;;;;5073020;28;20059;-66
2022/01/15 05:12:50;;;;;;;4.70;2.70;;;6.80;99.90;;;;;;5074160;28;20048;-66
2022/01/15 05:15:17;;;;;;;5.05;2.50;;;6.80;99.90;;;;;;5074532;28;20388;-66
2022/01/15 05:17:44;;;;;;;6.80;2.83;;;6.80;99.90;;;;;;5055037;28;20075;-66
2022/01/15 05:20:11;;;;;;;5.88;3.40;;;6.80;99.90;;;;;;5073470;28;20378;-66
2022/01/15 05:22:37;;;;;;;4.45;2.83;;;6.70;99.90;;;;;;5057207;28;20056;-66
2022/01/15 05:25:07;;;;;;;5.30;3.20;;;6.70;99.90;;;;;;5074064;28;20044;-66
2022/01/15 05:27:35;;;;;;;5.32;3.25;;;6.70;99.90;;;;;;5073958;28;20448;-65
2022/01/15 05:30:00;;;;;;;4.47;2.75;;;6.70;99.90;;;;;;5054682;28;20047;-65
2022/01/15 05:32:26;;;;;;;4.82;3.38;;;6.70;99.90;;;;;;5069252;28;20438;-67
2022/01/15 05:34:51;;;;;;;5.18;3.30;;;6.70;99.90;;;;;;5071500;28;20060;-68
2022/01/15 05:37:18;;;;;;;5.20;3.08;;;6.70;99.90;;;;;;5070948;28;20056;-68
2022/01/15 05:39:43;;;;;;;4.68;3.00;;;6.70;99.90;;;;;;5070246;28;20048;-67
2022/01/15 05:42:09;;;;;;;5.90;3.10;;;6.70;99.90;;;;;;5069915;28;20055;-65
2022/01/15 05:44:35;;;;;;;5.68;3.20;;;6.80;99.90;;;;;;5052980;28;20048;-65
2022/01/15 05:47:01;;;;;;;4.90;3.10;;;6.70;99.90;;;;;;5051346;28;20056;-65
2022/01/15 05:49:26;;;;;;;5.10;3.47;;;8.10;99.90;;;;;;5070754;28;20045;-65
2022/01/15 05:51:52;;;;;;;5.70;3.40;;;6.70;99.90;;;;;;5051897;28;20551;-67
2022/01/15 05:54:18;;;;;;;5.40;3.55;;;6.70;99.90;;;;;;5052680;28;20085;-65
2022/01/15 05:56:43;;;;;;;5.43;3.50;;;6.80;99.90;;;;;;5070264;28;20063;-65
2022/01/15 05:59:09;;;;;;;6.03;3.38;;;6.70;99.90;;;;;;5052369;28;20504;-65
2022/01/15 06:01:36;;;;;;;5.43;3.63;;;6.70;99.90;;;;;;5068921;28;20501;-67
2022/01/15 06:04:02;;;;;;;6.82;3.42;;;6.80;99.90;;;;;;5071118;28;20048;-67
2022/01/15 06:06:28;;;;;;;5.72;3.63;;;6.70;99.90;;;;;;5052029;28;20068;-67
2022/01/15 06:08:54;;;;;;;5.95;3.88;;;6.70;99.90;;;;;;5052790;28;20052;-68
2022/01/15 06:11:19;;;;;;;5.75;3.50;;;6.70;99.90;;;;;;5069274;28;20057;-67
2022/01/15 06:13:45;;;;;;;5.60;3.65;;;6.70;99.90;;;;;;5069877;28;20049;-67
2022/01/15 06:16:11;;;;;;;5.93;3.63;;;6.70;99.90;;;;;;5051167;28;20052;-67
2022/01/15 06:18:37;;;;;;;6.60;4.35;;;6.70;99.90;;;;;;5070065;28;20123;-68
2022/01/15 06:21:03;;;;;;;6.05;3.72;;;6.70;99.90;;;;;;5071891;28;20045;-65
2022/01/15 06:23:28;;;;;;;5.53;3.40;;;6.70;99.90;;;;;;5071297;28;20055;-68
2022/01/15 06:25:54;;;;;;;7.22;3.90;;;6.70;99.90;;;;;;5069092;28;20056;-68
2022/01/15 06:28:20;;;;;;;7.03;3.83;;;6.70;99.90;;;;;;5058579;28;20044;-65
2022/01/15 06:30:46;;;;;;;7.30;3.75;;;6.70;99.90;;;;;;5062778;28;20539;-65
2022/01/15 06:33:11;;;;;;;6.25;3.85;;;6.70;99.90;;;;;;5051162;28;20489;-67
2022/01/15 06:35:37;;;;;;;6.35;3.80;;;6.70;99.90;;;;;;5069608;28;20116;-68
2022/01/15 06:38:03;;;;;;;6.15;3.90;;;6.70;99.90;;;;;;5051600;28;20057;-67
2022/01/15 06:40:28;;;;;;;5.78;3.80;;;6.70;99.90;;;;;;5051765;28;20044;-67
2022/01/15 06:42:54;;;;;;;6.70;3.95;;;6.60;99.90;;;;;;5067612;28;20056;-68
2022/01/15 06:45:20;;;;;;;6.43;3.95;;;6.60;99.90;;;;;;5068941;28;20151;-67
2022/01/15 06:47:45;;;;;;;8.00;3.60;;;6.60;99.90;;;;;;5071059;28;20048;-67
2022/01/15 06:50:11;;;;;;;8.00;4.15;;;6.60;99.90;;;;;;5050355;28;20063;-68
2022/01/15 06:52:38;;;;;;;9.10;4.50;;;6.60;99.90;;;;;;5051393;28;20044;-67
2022/01/15 06:55:05;;;;;;;7.72;4.50;;;6.50;99.90;;;;;;5069228;28;20098;-67
2022/01/15 06:57:31;;;;;;;6.25;3.90;;;6.50;99.90;;;;;;5070550;28;20053;-68
2022/01/15 06:59:57;;;;;;;6.28;4.00;;;6.50;99.90;;;;;;5052428;28;20088;-67
2022/01/15 07:02:23;;;;;;;6.18;3.47;;;6.50;99.90;;;;;;5049785;28;20103;-68
2022/01/15 07:04:48;;;;;;;6.35;4.20;;;6.50;99.90;;;;;;5069417;28;20052;-68
2022/01/15 07:07:14;;;;;;;6.40;3.97;;;6.50;99.90;;;;;;5051824;28;20469;-67
2022/01/15 07:09:40;;;;;;;7.30;4.15;;;6.50;99.90;;;;;;5052738;28;20045;-67
2022/01/15 07:12:06;;;;;;;5.88;3.58;;;6.40;99.90;;;;;;5051429;28;20119;-66
2022/01/15 07:14:31;;;;;;;6.32;3.60;;;6.50;99.90;;;;;;5048943;28;20052;-67
2022/01/15 07:16:57;;;;;;;6.18;3.80;;;6.40;99.90;;;;;;5030144;28;20044;-66
2022/01/15 07:19:23;;;;;;;5.68;3.58;;;6.50;99.90;;;;;;5041693;28;20131;-67
2022/01/15 07:21:49;;;;;;;7.07;3.55;;;6.40;99.90;;;;;;5051307;28;20562;-67
2022/01/15 07:24:16;;;;;;;5.88;3.45;;;6.50;99.90;;;;;;5068835;28;20135;-67
2022/01/15 07:26:42;;;;;;;8.73;3.72;;;6.50;99.90;;;;;;5057930;28;20415;-67
2022/01/15 07:29:14;;;;;;;7.93;3.70;;;6.40;99.90;;;;;;5033252;28;20416;-67
2022/01/15 07:31:40;;;;;;;5.63;3.45;;;6.40;99.90;;;;;;5029082;28;20396;-66
2022/01/15 07:34:06;;;;;;;5.13;3.05;;;6.40;99.90;;;;;;5049364;28;20068;-67
2022/01/15 07:36:31;;;;;;;5.30;3.40;;;6.40;99.90;;;;;;5015775;28;20048;-67
2022/01/15 07:38:57;;;;;;;5.40;3.45;;;6.40;99.90;;;;;;5048442;28;20128;-66
2022/01/15 07:41:23;;;;;;;5.75;3.70;;;6.40;99.90;;;;;;5048023;28;20075;-66
2022/01/15 07:43:49;;;;;;;6.40;3.60;;;6.40;99.90;;;;;;5067548;28;20040;-67
2022/01/15 07:46:15;;;;;;;6.97;3.88;;;6.40;99.90;;;;;;5067599;28;20060;-66
2022/01/15 07:48:40;;;;;;;8.27;3.90;;;6.50;99.90;;;;;;5065657;28;20048;-66
2022/01/15 07:51:07;;;;;;;7.35;3.80;;;6.40;99.90;;;;;;5048166;28;20049;-67
2022/01/15 07:53:33;;;;;;;6.43;3.85;;;6.40;99.90;;;;;;5029349;28;20202;-66
2022/01/15 07:55:58;;;;;;;6.05;3.92;;;6.30;99.90;;;;;;5057348;28;20036;-67
2022/01/15 07:58:24;;;;;;;7.80;4.13;;;6.30;99.90;;;;;;5068172;28;20056;-67
2022/01/15 08:00:50;;;;;;;9.23;4.18;;;6.10;99.90;;;;;;5067298;28;20055;-67
2022/01/15 08:03:15;;;;;;;6.38;3.50;;;6.30;99.90;;;;;;5067461;28;20131;-67
2022/01/15 08:05:41;;;;;;;8.23;4.45;;;6.30;99.90;;;;;;5065796;28;20128;-67
2022/01/15 08:08:06;;;;;;;7.88;3.75;;;6.20;99.90;;;;;;5067856;28;20057;-66
2022/01/15 08:10:32;;;;;;;6.30;3.92;;;6.30;99.90;;;;;;5050050;28;20057;-66
2022/01/15 08:12:58;;;;;;;7.50;4.07;;;6.20;99.90;;;;;;5066986;28;20405;-67
2022/01/15 08:15:25;;;;;;;7.32;3.50;;;6.30;99.90;;;;;;5068310;28;20092;-66
2022/01/15 08:17:51;;;;;;;6.35;3.70;;;6.30;99.90;;;;;;5049229;28;20048;-67
2022/01/15 08:20:17;;;;;;;6.95;3.80;;;5.90;99.90;;;;;;5049828;28;20056;-66
2022/01/15 08:22:44;;;;;;;5.90;3.72;;;6.30;99.90;;;;;;5068145;28;20223;-66
2022/01/15 08:25:11;;;;;;;7.22;4.00;;;6.30;99.90;;;;;;5067503;28;20052;-66
2022/01/15 08:27:37;;;;;;;5.57;3.60;;;6.40;99.90;;;;;;5066895;28;20057;-66
2022/01/15 08:30:05;;;;;;;7.47;3.70;;;6.40;99.90;;;;;;5068031;28;20373;-67
2022/01/15 08:32:30;;;;;;;6.95;3.55;;;6.30;99.90;;;;;;5049096;28;20060;-66
2022/01/15 08:34:56;;;;;;;6.40;3.58;;;6.40;99.90;;;;;;5067067;28;20094;-67
2022/01/15 08:37:22;;;;;;;5.78;3.67;;;6.40;99.90;;;;;;5069636;28;20055;-66
2022/01/15 08:39:47;;;;;;;5.75;3.80;;;6.40;99.90;;;;;;5048731;28;20048;-66
2022/01/15 08:42:13;;;;;;;6.22;3.78;;;6.40;99.90;;;;;;5067049;28;20041;-67
2022/01/15 08:44:42;;;;;;;7.15;3.80;;;6.50;99.90;;;;;;5050216;28;20060;-66
2022/01/15 08:47:08;;;;;;;7.53;3.92;;;6.30;99.90;;;;;;5048731;28;20531;-66
2022/01/15 08:49:34;;;;;;;7.15;4.10;;;6.30;99.90;;;;;;5066744;28;20064;-66
2022/01/15 08:52:00;;;;;;;6.15;3.67;;;6.30;99.90;;;;;;5048980;28;20060;-67
2022/01/15 08:54:25;;;;;;;6.97;3.63;;;6.40;99.90;;;;;;5067262;28;20055;-67
2022/01/15 08:56:51;;;;;;;6.03;3.60;;;7.20;99.90;;;;;;5032249;28;20056;-67
2022/01/15 08:59:17;;;;;;;6.72;3.95;;;6.30;99.90;;;;;;5050169;28;20052;-66
2022/01/15 09:01:42;;;;;;;8.15;4.00;;;6.40;99.90;;;;;;5048915;28;20045;-66
2022/01/15 09:04:08;;;;;;;5.55;3.53;;;6.40;99.90;;;;;;5067781;28;20041;-67
2022/01/15 09:06:34;;;;;;;6.05;3.60;;;6.40;99.90;;;;;;5070391;28;20049;-67
2022/01/15 09:08:59;;;;;;;6.68;3.65;;;6.40;99.90;;;;;;5069468;28;20061;-67
2022/01/15 09:11:25;;;;;;;5.38;3.42;;;6.40;99.90;;;;;;5062613;28;20471;-67
2022/01/15 09:13:50;;;;;;;7.53;3.60;;;6.40;99.90;;;;;;5071190;28;20454;-66
2022/01/15 09:16:16;;;;;;;7.38;3.50;;;6.50;99.90;;;;;;5070445;28;20049;-66
2022/01/15 09:18:41;;;;;;;7.68;3.60;;;6.50;99.90;;;;;;5053346;28;20114;-67
2022/01/15 09:21:08;;;;;;;5.50;3.30;;;6.40;99.90;;;;;;5070756;28;20392;-67
2022/01/15 09:23:36;;;;;;;5.53;3.33;;;6.40;99.90;;;;;;5070512;28;20040;-67
2022/01/15 09:26:02;;;;;;;4.60;2.50;;;6.30;99.90;;;;;;5070383;28;20051;-67
2022/01/15 09:31:32;;;;;;;4.35;2.60;;;6.30;99.90;;;;;;4987882;28;20113;-67
2022/01/15 09:33:58;;;;;;;4.28;2.60;;;6.20;99.90;;;;;;4972597;28;20091;-66
2022/01/15 09:36:23;;;;;;;5.90;2.90;;;6.20;99.90;;;;;;4993634;28;20114;-66
2022/01/15 09:38:49;;;;;;;4.45;2.60;;;6.20;99.90;;;;;;5070823;28;20056;-66
2022/01/15 09:41:15;;;;;;;4.72;3.00;;;6.20;99.90;;;;;;5070240;28;20052;-66
2022/01/15 09:43:42;;;;;;;4.85;2.80;;;6.30;99.90;;;;;;5071448;28;20056;-66
2022/01/15 09:46:09;;;;;;;4.88;3.00;;;6.30;99.90;;;;;;5069608;28;20130;-66
2022/01/15 09:48:38;;;;;;;5.65;3.40;;;6.30;99.90;;;;;;5070361;28;20047;-66
2022/01/15 09:51:05;;;;;;;6.15;3.38;;;6.30;99.90;;;;;;5052069;28;20060;-67
2022/01/15 09:53:33;;;;;;;7.45;4.32;;;6.20;99.90;;;;;;5072928;28;20053;-66
2022/01/15 09:55:59;;;;;;;8.18;4.50;;;6.20;99.90;;;;;;5070604;28;20110;-66
2022/01/15 09:58:25;;;;;;;10.10;5.32;;;6.30;99.90;;;;;;5068651;28;20131;-66
2022/01/15 10:00:51;;;;;;;8.93;5.45;;;6.30;99.90;;;;;;5069383;28;20110;-66
2022/01/15 10:03:19;;;;;;;9.80;5.40;;;6.40;99.90;;;;;;5053589;28;20044;-66
2022/01/15 10:05:45;;;;;;;10.25;6.07;;;6.30;99.90;;;;;;5071331;28;20064;-66
2022/01/15 10:08:13;;;;;;;10.40;6.22;;;6.30;99.90;;;;;;5069917;28;20110;-66
2022/01/15 10:10:46;;;;;;;11.40;6.68;;;6.30;99.90;;;;;;5068982;28;20067;-66
2022/01/15 10:13:20;;;;;;;9.93;6.22;;;6.40;99.90;;;;;;5033992;28;20056;-66
2022/01/15 10:16:06;;;;;;;10.40;6.57;;;6.40;99.90;;;;;;5069815;28;20950;-66
2022/01/15 10:18:35;;;;;;;10.65;6.55;;;6.40;99.90;;;;;;5034556;28;20155;-67
2022/01/15 10:21:13;;;;;;;10.68;6.63;;;6.30;99.90;;;;;;5070263;28;20052;-66
2022/01/15 10:23:50;;;;;;;10.40;6.50;;;6.40;99.90;;;;;;5052447;28;20057;-66
2022/01/15 10:26:21;;;;;;;11.77;7.07;;;6.40;99.90;;;;;;5067271;28;20057;-67
2022/01/15 10:29:01;;;;;;;11.73;7.53;;;6.40;99.90;;;;;;5070492;28;20382;-66
2022/01/15 10:31:29;;;;;;;11.57;6.97;;;6.30;99.90;;;;;;5051023;28;20061;-66
2022/01/15 10:33:57;;;;;;;12.75;7.60;;;6.40;99.90;;;;;;5060539;28;20048;-66
2022/01/15 10:36:32;;;;;;;15.00;8.25;;;6.40;99.90;;;;;;5049083;28;20060;-67
2022/01/15 10:39:27;;;;;;;13.77;7.68;;;6.40;99.90;;;;;;5050807;28;20033;-65
2022/01/15 10:41:53;;;;;;;13.77;7.82;;;6.40;99.90;;;;;;5032098;28;20114;-68
2022/01/15 10:44:30;;;;;;;14.05;8.55;;;7.40;99.90;;;;;;5059000;28;20052;-66
2022/01/15 10:47:13;;;;;;;12.63;7.85;;;6.40;99.90;;;;;;5049353;28;20048;-65
2022/01/15 10:49:41;;;;;;;13.30;7.93;;;6.50;99.90;;;;;;5072054;28;20063;-68
2022/01/15 10:52:25;;;;;;;11.77;7.25;;;6.50;99.90;;;;;;5068995;28;20483;-68
2022/01/15 10:55:06;;;;;;;12.48;6.60;;;6.50;99.90;;;;;;5068244;28;20114;-67
2022/01/15 10:57:38;;;;;;;11.07;6.25;;;6.50;99.90;;;;;;5069197;28;20064;-67
2022/01/15 11:00:20;;;;;;;12.27;7.10;;;6.50;99.90;;;;;;5051271;28;20041;-68
2022/01/15 11:02:49;;;;;;;12.30;6.70;;;6.50;99.90;;;;;;5049140;28;20123;-68
2022/01/15 11:05:45;;;;;;;11.75;7.03;;;6.40;99.90;;;;;;5069372;28;20052;-67
2022/01/15 11:08:18;;;;;;;12.73;7.22;;;6.40;99.90;;;;;;5030647;28;20493;-68
2022/01/15 11:10:52;;;;;;;12.73;7.90;;;6.50;99.90;;;;;;5055019;28;20129;-68
2022/01/15 11:13:21;;;;;;;14.05;8.10;;;6.40;99.90;;;;;;5066431;28;20052;-68
2022/01/15 11:15:49;;;;;;;15.90;8.68;;;6.40;99.90;;;;;;5031290;28;20075;-68
2022/01/15 11:18:27;;;;;;;15.63;8.80;;;6.40;99.90;;;;;;5072563;28;20068;-68
2022/01/15 11:20:56;;;;;;;17.05;9.20;;;6.40;99.90;;;;;;5067806;28;20048;-67
2022/01/15 11:23:24;;;;;;;14.93;8.70;;;6.30;99.90;;;;;;5068291;28;20099;-67
2022/01/15 11:25:51;;;;;;;14.80;8.38;;;6.30;99.90;;;;;;5067644;28;20048;-68
2022/01/15 11:28:19;;;;;;;13.05;7.93;;;6.40;99.90;;;;;;5068088;28;20067;-68
2022/01/15 11:30:46;;;;;;;15.98;8.77;;;6.40;99.90;;;;;;5050137;28;20123;-68
2022/01/15 11:33:13;;;;;;;13.32;8.30;;;6.40;99.90;;;;;;5067479;28;20060;-68
2022/01/15 11:35:46;;;;;;;14.77;8.77;;;6.40;99.90;;;;;;5068366;28;20154;-67
2022/01/15 11:38:45;;;;;;;16.45;9.02;;;6.30;99.90;;;;;;5068284;28;20061;-68
2022/01/15 11:41:22;;;;;;;14.80;8.65;;;6.30;99.90;;;;;;5063932;28;20103;-70
2022/01/15 11:43:50;;;;;;;16.25;9.45;;;6.30;99.90;;;;;;5064167;28;20063;-71
2022/01/15 11:46:31;;;;;;;18.25;9.07;;;6.30;99.90;;;;;;5063731;28;20071;-71
2022/01/15 11:49:32;;;;;;;15.60;9.10;;;6.30;99.90;;;;;;5062704;28;20052;-70
2022/01/15 11:52:12;;;;;;;18.35;9.38;;;6.30;99.90;;;;;;5029448;28;20060;-70
2022/01/15 11:54:57;;;;;;;16.00;9.57;;;6.30;99.90;;;;;;5047802;28;20476;-70
2022/01/15 11:57:34;;;;;;;18.80;10.48;;;6.20;99.90;;;;;;5033532;28;20139;-71
2022/01/15 12:00:18;;;;;;;15.27;8.70;;;6.20;99.90;;;;;;5047372;28;20494;-70
2022/01/15 12:02:57;;;;;;;18.63;9.52;;;6.20;99.90;;;;;;5027552;28;20053;-70
2022/01/15 12:05:22;;;;;;;18.35;10.35;;;6.20;99.90;;;;;;5046977;28;20041;-68
2022/01/15 12:08:08;;;;;;;16.90;9.85;;;6.10;99.90;;;;;;5048367;28;20063;-68
2022/01/15 12:10:40;;;;;;;18.98;10.50;;;6.20;99.90;;;;;;5035487;28;20099;-71
2022/01/15 12:13:15;;;;;;;17.52;10.02;;;6.20;99.90;;;;;;5066396;28;20097;-70
2022/01/15 12:15:41;;;;;;;19.40;10.50;;;6.10;99.90;;;;;;5050292;28;20056;-70
2022/01/15 12:18:23;;;;;;;17.50;10.15;;;6.10;99.90;;;;;;5049192;28;20058;-70
2022/01/15 12:20:55;;;;;;;18.00;10.70;;;6.10;99.90;;;;;;5067809;28;20049;-68
2022/01/15 12:23:21;;;;;;;20.10;11.82;;;6.10;99.90;;;;;;5049407;28;20527;-69
2022/01/15 12:25:49;;;;;;;19.02;11.88;;;6.20;99.90;;;;;;5067462;28;20063;-69
2022/01/15 12:28:16;;;;;;;19.00;11.27;;;6.20;99.90;;;;;;5068002;28;20052;-69
2022/01/15 12:30:50;;;;;;;20.55;12.20;;;7.20;99.90;;;;;;5068059;28;20056;-69
2022/01/15 12:33:17;;;;;;;20.58;12.23;;;6.10;99.90;;;;;;5063870;28;20167;-68
2022/01/15 12:35:50;;;;;;;18.63;10.80;;;6.10;99.90;;;;;;5050025;28;20061;-70
2022/01/15 12:38:25;;;;;;;17.70;11.68;;;6.20;99.90;;;;;;5029148;28;20053;-69
2022/01/15 12:40:59;;;;;;;19.03;10.73;;;6.10;99.90;;;;;;5032284;28;20187;-69
2022/01/15 12:43:27;;;;;;;17.15;11.02;;;6.10;99.90;;;;;;5050573;28;20302;-69
2022/01/15 12:45:55;;;;;;;19.63;11.95;;;6.10;99.90;;;;;;5072549;28;20048;-68
2022/01/15 12:48:23;;;;;;;20.55;11.70;;;6.10;99.90;;;;;;5069919;28;20761;-70
2022/01/15 12:50:51;;;;;;;17.45;11.32;;;6.10;99.90;;;;;;5066836;28;20048;-70
2022/01/15 12:53:19;;;;;;;21.30;12.93;;;6.10;99.90;;;;;;5067540;28;20553;-71
2022/01/15 12:55:45;;;;;;;22.60;12.98;;;6.10;99.90;;;;;;5067624;28;20122;-70
2022/01/15 12:58:15;;;;;;;21.33;13.68;;;6.10;99.90;;;;;;5066620;28;20262;-70
2022/01/15 13:00:40;;;;;;;21.45;13.95;;;6.10;99.90;;;;;;5014133;28;20053;-70
2022/01/15 13:03:11;;;;;;;22.83;12.98;;;6.10;99.90;;;;;;5039627;28;20377;-70
2022/01/15 13:05:42;;;;;;;23.52;14.68;;;6.10;99.90;;;;;;5070396;28;20194;-72
2022/01/15 13:08:15;;;;;;;22.85;14.02;;;6.80;99.90;;;;;;5067168;28;20052;-70
2022/01/15 13:11:04;;;;;;;22.70;12.93;;;6.00;99.90;;;;;;5042697;28;20528;-70
2022/01/15 13:13:33;;;;;;;22.25;13.98;;;6.50;99.90;;;;;;5046931;28;20053;-70
2022/01/15 13:16:16;;;;;;;25.27;14.90;;;6.00;99.90;;;;;;5058772;28;20349;-66
2022/01/15 13:18:47;;;;;;;26.85;15.50;;;5.90;99.90;;;;;;5071168;28;20131;-65
2022/01/15 13:21:18;;;;;;;22.67;14.02;;;5.90;99.90;;;;;;5070453;28;20060;-66